sensor_id;sensor_type;location;lat;lon;timestamp;temperature;humidity
13970;DHT22;7057;49.984;8.404;2023-02-05T00:00:45;4.40;99.90
13970;DHT22;7057;49.984;8.404;2023-02-05T00:03:12;4.40;99.90
13970;DHT22;7057;49.984;8.404;2023-02-05T00:05:39;4.30;99.90
13970;DHT22;7057;49.984;8.404;2023-02-05T00:08:08;4.20;99.90
13970;DHT22;7057;49.984;8.404;2023-02-05T00:10:35;4.20;99.90
13970;DHT22;7057;49.984;8.404;2023-02-05T00:13:02;4.10;99.90
13970;DHT22;7057;49.984;8.404;2023-02-05T00:15:30;4.10;99.90
13970;DHT22;7057;49.984;8.404;2023-02-05T00:17:57;4.10;99.90
13970;DHT22;7057;49.984;8.404;2023-02-05T00:20:24;4.10;99.90
13970;DHT22;7057;49.984;8.404;2023-02-05T00:22:51;4.10;99.90
13970;DHT22;7057;49.984;8.404;2023-02-05T00:25:20;4.00;99.90
13970;DHT22;7057;49.984;8.404;2023-02-05T00:27:47;3.90;99.90
13970;DHT22;7057;49.984;8.404;2023-02-05T00:30:14;3.80;99.90
13970;DHT22;7057;49.984;8.404;2023-02-05T00:32:41;3.80;99.90
13970;DHT22;7057;49.984;8.404;2023-02-05T00:35:08;3.80;99.90
13970;DHT22;7057;49.984;8.404;2023-02-05T00:37:35;3.70;99.90
13970;DHT22;7057;49.984;8.404;2023-02-05T00:40:03;3.70;99.90
13970;DHT22;7057;49.984;8.404;2023-02-05T00:42:32;3.60;99.90
13970;DHT22;7057;49.984;8.404;2023-02-05T00:44:59;3.60;99.90
13970;DHT22;7057;49.984;8.404;2023-02-05T00:47:26;3.70;99.90
13970;DHT22;7057;49.984;8.404;2023-02-05T00:49:53;3.70;99.90
13970;DHT22;7057;49.984;8.404;2023-02-05T00:52:20;3.70;99.90
13970;DHT22;7057;49.984;8.404;2023-02-05T00:54:48;3.80;99.90
13970;DHT22;7057;49.984;8.404;2023-02-05T00:57:15;3.80;99.90
13970;DHT22;7057;49.984;8.404;2023-02-05T00:59:44;3.90;99.90
13970;DHT22;7057;49.984;8.404;2023-02-05T01:02:11;3.90;99.90
13970;DHT22;7057;49.984;8.404;2023-02-05T01:04:38;4.00;99.90
13970;DHT22;7057;49.984;8.404;2023-02-05T01:07:05;4.00;99.90
13970;DHT22;7057;49.984;8.404;2023-02-05T01:09:32;4.10;99.90
13970;DHT22;7057;49.984;8.404;2023-02-05T01:11:59;4.20;99.90
13970;DHT22;7057;49.984;8.404;2023-02-05T01:14:27;4.20;99.90
13970;DHT22;7057;49.984;8.404;2023-02-05T01:16:55;4.30;99.90
13970;DHT22;7057;49.984;8.404;2023-02-05T01:19:22;4.30;99.90
13970;DHT22;7057;49.984;8.404;2023-02-05T01:21:49;4.30;99.90
13970;DHT22;7057;49.984;8.404;2023-02-05T01:24:17;4.30;99.90
13970;DHT22;7057;49.984;8.404;2023-02-05T01:26:44;4.20;99.90
13970;DHT22;7057;49.984;8.404;2023-02-05T01:29:12;4.20;99.90
13970;DHT22;7057;49.984;8.404;2023-02-05T01:31:39;4.30;99.90
13970;DHT22;7057;49.984;8.404;2023-02-05T01:34:08;4.40;99.90
13970;DHT22;7057;49.984;8.404;2023-02-05T01:36:35;4.50;99.90
13970;DHT22;7057;49.984;8.404;2023-02-05T01:39:02;4.50;99.90
13970;DHT22;7057;49.984;8.404;2023-02-05T01:41:29;4.40;99.90
13970;DHT22;7057;49.984;8.404;2023-02-05T01:44:11;4.30;99.90
13970;DHT22;7057;49.984;8.404;2023-02-05T01:46:39;4.30;99.90
13970;DHT22;7057;49.984;8.404;2023-02-05T01:49:11;4.20;99.90
13970;DHT22;7057;49.984;8.404;2023-02-05T01:51:40;4.30;99.90
13970;DHT22;7057;49.984;8.404;2023-02-05T01:54:09;4.30;99.90
13970;DHT22;7057;49.984;8.404;2023-02-05T01:56:38;4.30;99.90
13970;DHT22;7057;49.984;8.404;2023-02-05T01:59:10;4.30;99.90
13970;DHT22;7057;49.984;8.404;2023-02-05T02:01:39;4.30;99.90
13970;DHT22;7057;49.984;8.404;2023-02-05T02:04:10;4.20;99.90
13970;DHT22;7057;49.984;8.404;2023-02-05T02:06:39;4.10;99.90
13970;DHT22;7057;49.984;8.404;2023-02-05T02:09:07;4.10;99.90
13970;DHT22;7057;49.984;8.404;2023-02-05T02:11:37;4.20;99.90
13970;DHT22;7057;49.984;8.404;2023-02-05T02:14:09;4.20;99.90
13970;DHT22;7057;49.984;8.404;2023-02-05T02:16:38;4.10;99.90
13970;DHT22;7057;49.984;8.404;2023-02-05T02:19:14;4.10;99.90
13970;DHT22;7057;49.984;8.404;2023-02-05T02:27:47;4.20;99.90
13970;DHT22;7057;49.984;8.404;2023-02-05T02:30:19;4.20;99.90
13970;DHT22;7057;49.984;8.404;2023-02-05T02:32:54;4.30;99.90
13970;DHT22;7057;49.984;8.404;2023-02-05T02:35:27;4.30;99.90
13970;DHT22;7057;49.984;8.404;2023-02-05T02:38:05;4.30;99.90
13970;DHT22;7057;49.984;8.404;2023-02-05T02:40:37;4.30;99.90
13970;DHT22;7057;49.984;8.404;2023-02-05T02:43:09;4.30;99.90
13970;DHT22;7057;49.984;8.404;2023-02-05T02:45:44;4.30;99.90
13970;DHT22;7057;49.984;8.404;2023-02-05T02:48:12;4.40;99.90
13970;DHT22;7057;49.984;8.404;2023-02-05T02:50:45;4.30;99.90
13970;DHT22;7057;49.984;8.404;2023-02-05T02:53:16;4.30;99.90
13970;DHT22;7057;49.984;8.404;2023-02-05T02:55:46;4.30;99.90
13970;DHT22;7057;49.984;8.404;2023-02-05T02:58:19;4.30;99.90
13970;DHT22;7057;49.984;8.404;2023-02-05T03:00:47;4.30;99.90
13970;DHT22;7057;49.984;8.404;2023-02-05T03:03:16;4.30;99.90
13970;DHT22;7057;49.984;8.404;2023-02-05T03:05:47;4.40;99.90
13970;DHT22;7057;49.984;8.404;2023-02-05T03:08:19;4.30;99.90
13970;DHT22;7057;49.984;8.404;2023-02-05T03:10:51;4.40;99.90
13970;DHT22;7057;49.984;8.404;2023-02-05T03:13:21;4.40;99.90
13970;DHT22;7057;49.984;8.404;2023-02-05T03:15:48;4.50;99.90
13970;DHT22;7057;49.984;8.404;2023-02-05T03:18:16;4.50;99.90
13970;DHT22;7057;49.984;8.404;2023-02-05T03:20:47;4.50;99.90
13970;DHT22;7057;49.984;8.404;2023-02-05T03:23:16;4.50;99.90
13970;DHT22;7057;49.984;8.404;2023-02-05T03:25:44;4.50;99.90
13970;DHT22;7057;49.984;8.404;2023-02-05T03:28:11;4.50;99.90
13970;DHT22;7057;49.984;8.404;2023-02-05T03:30:49;4.50;99.90
13970;DHT22;7057;49.984;8.404;2023-02-05T03:33:26;4.50;99.90
13970;DHT22;7057;49.984;8.404;2023-02-05T03:35:59;4.50;99.90
13970;DHT22;7057;49.984;8.404;2023-02-05T03:38:41;4.40;99.90
13970;DHT22;7057;49.984;8.404;2023-02-05T03:41:18;4.30;99.90
13970;DHT22;7057;49.984;8.404;2023-02-05T03:43:49;4.30;99.90
13970;DHT22;7057;49.984;8.404;2023-02-05T03:46:29;4.30;99.90
13970;DHT22;7057;49.984;8.404;2023-02-05T03:49:05;4.40;99.90
13970;DHT22;7057;49.984;8.404;2023-02-05T03:51:38;4.40;99.90
13970;DHT22;7057;49.984;8.404;2023-02-05T03:54:15;4.40;99.90
13970;DHT22;7057;49.984;8.404;2023-02-05T03:56:50;4.30;99.90
13970;DHT22;7057;49.984;8.404;2023-02-05T03:59:19;4.30;99.90
13970;DHT22;7057;49.984;8.404;2023-02-05T04:01:48;4.30;99.90
13970;DHT22;7057;49.984;8.404;2023-02-05T04:04:16;4.40;99.90
13970;DHT22;7057;49.984;8.404;2023-02-05T04:06:45;4.30;99.90
13970;DHT22;7057;49.984;8.404;2023-02-05T04:09:12;4.30;99.90
13970;DHT22;7057;49.984;8.404;2023-02-05T04:11:39;4.30;99.90
13970;DHT22;7057;49.984;8.404;2023-02-05T04:14:07;4.30;99.90
13970;DHT22;7057;49.984;8.404;2023-02-05T04:16:34;4.20;99.90
13970;DHT22;7057;49.984;8.404;2023-02-05T04:19:02;4.20;99.90
13970;DHT22;7057;49.984;8.404;2023-02-05T04:21:29;4.20;99.90
13970;DHT22;7057;49.984;8.404;2023-02-05T04:23:57;4.20;99.90
13970;DHT22;7057;49.984;8.404;2023-02-05T04:26:24;4.20;99.90
13970;DHT22;7057;49.984;8.404;2023-02-05T04:28:51;4.20;99.90
13970;DHT22;7057;49.984;8.404;2023-02-05T04:31:18;4.20;99.90
13970;DHT22;7057;49.984;8.404;2023-02-05T04:33:45;4.30;99.90
13970;DHT22;7057;49.984;8.404;2023-02-05T04:36:14;4.20;99.90
13970;DHT22;7057;49.984;8.404;2023-02-05T04:38:41;4.20;99.90
13970;DHT22;7057;49.984;8.404;2023-02-05T04:41:08;4.20;99.90
13970;DHT22;7057;49.984;8.404;2023-02-05T04:43:36;4.20;99.90
13970;DHT22;7057;49.984;8.404;2023-02-05T04:46:06;4.20;99.90
13970;DHT22;7057;49.984;8.404;2023-02-05T04:48:34;4.20;99.90
13970;DHT22;7057;49.984;8.404;2023-02-05T04:51:05;4.30;99.90
13970;DHT22;7057;49.984;8.404;2023-02-05T04:53:33;4.40;99.90
13970;DHT22;7057;49.984;8.404;2023-02-05T04:56:05;4.50;99.90
13970;DHT22;7057;49.984;8.404;2023-02-05T04:58:32;4.50;99.90
13970;DHT22;7057;49.984;8.404;2023-02-05T05:00:59;4.60;99.90
13970;DHT22;7057;49.984;8.404;2023-02-05T05:03:27;4.70;99.90
13970;DHT22;7057;49.984;8.404;2023-02-05T05:05:54;4.70;99.90
13970;DHT22;7057;49.984;8.404;2023-02-05T05:08:21;4.70;99.90
13970;DHT22;7057;49.984;8.404;2023-02-05T05:10:50;4.70;99.90
13970;DHT22;7057;49.984;8.404;2023-02-05T05:13:17;4.80;99.90
13970;DHT22;7057;49.984;8.404;2023-02-05T05:15:44;4.80;99.90
13970;DHT22;7057;49.984;8.404;2023-02-05T05:18:11;4.80;99.90
13970;DHT22;7057;49.984;8.404;2023-02-05T05:20:38;4.70;99.90
13970;DHT22;7057;49.984;8.404;2023-02-05T05:23:05;4.70;99.90
13970;DHT22;7057;49.984;8.404;2023-02-05T05:25:32;4.60;99.90
13970;DHT22;7057;49.984;8.404;2023-02-05T05:28:01;4.50;99.90
13970;DHT22;7057;49.984;8.404;2023-02-05T05:30:28;4.40;99.90
13970;DHT22;7057;49.984;8.404;2023-02-05T05:32:55;4.40;99.90
13970;DHT22;7057;49.984;8.404;2023-02-05T05:35:22;4.50;99.90
13970;DHT22;7057;49.984;8.404;2023-02-05T05:37:49;4.50;99.90
13970;DHT22;7057;49.984;8.404;2023-02-05T05:40:17;4.50;99.90
13970;DHT22;7057;49.984;8.404;2023-02-05T05:43:03;4.60;99.90
13970;DHT22;7057;49.984;8.404;2023-02-05T05:45:48;4.60;99.90
13970;DHT22;7057;49.984;8.404;2023-02-05T05:48:15;4.60;99.90
13970;DHT22;7057;49.984;8.404;2023-02-05T05:50:42;4.60;99.90
13970;DHT22;7057;49.984;8.404;2023-02-05T05:53:09;4.60;99.90
13970;DHT22;7057;49.984;8.404;2023-02-05T05:55:37;4.50;99.90
13970;DHT22;7057;49.984;8.404;2023-02-05T05:58:05;4.40;99.90
13970;DHT22;7057;49.984;8.404;2023-02-05T06:00:33;4.30;99.90
13970;DHT22;7057;49.984;8.404;2023-02-05T06:03:00;4.30;99.90
13970;DHT22;7057;49.984;8.404;2023-02-05T06:05:27;4.40;99.90
13970;DHT22;7057;49.984;8.404;2023-02-05T06:07:55;4.50;99.90
13970;DHT22;7057;49.984;8.404;2023-02-05T06:10:22;4.50;99.90
13970;DHT22;7057;49.984;8.404;2023-02-05T06:12:49;4.60;99.90
13970;DHT22;7057;49.984;8.404;2023-02-05T06:15:19;4.70;99.90
13970;DHT22;7057;49.984;8.404;2023-02-05T06:17:46;4.70;99.90
13970;DHT22;7057;49.984;8.404;2023-02-05T06:20:14;4.70;99.90
13970;DHT22;7057;49.984;8.404;2023-02-05T06:22:41;4.70;99.90
13970;DHT22;7057;49.984;8.404;2023-02-05T06:25:08;4.70;99.90
13970;DHT22;7057;49.984;8.404;2023-02-05T06:27:35;4.70;99.90
13970;DHT22;7057;49.984;8.404;2023-02-05T06:30:03;4.70;99.90
13970;DHT22;7057;49.984;8.404;2023-02-05T06:32:31;4.70;99.90
13970;DHT22;7057;49.984;8.404;2023-02-05T06:34:59;4.70;99.90
13970;DHT22;7057;49.984;8.404;2023-02-05T06:37:26;4.70;99.90
13970;DHT22;7057;49.984;8.404;2023-02-05T06:39:54;4.70;99.90
13970;DHT22;7057;49.984;8.404;2023-02-05T06:42:21;4.70;99.90
13970;DHT22;7057;49.984;8.404;2023-02-05T06:44:49;4.70;99.90
13970;DHT22;7057;49.984;8.404;2023-02-05T06:47:16;4.70;99.90
13970;DHT22;7057;49.984;8.404;2023-02-05T06:49:44;4.70;99.90
13970;DHT22;7057;49.984;8.404;2023-02-05T06:52:11;4.70;99.90
13970;DHT22;7057;49.984;8.404;2023-02-05T06:54:38;4.70;99.90
13970;DHT22;7057;49.984;8.404;2023-02-05T06:57:08;4.70;99.90
13970;DHT22;7057;49.984;8.404;2023-02-05T06:59:35;4.70;99.90
13970;DHT22;7057;49.984;8.404;2023-02-05T07:02:02;4.60;99.90
13970;DHT22;7057;49.984;8.404;2023-02-05T07:04:30;4.60;99.90
13970;DHT22;7057;49.984;8.404;2023-02-05T07:06:58;4.60;99.90
13970;DHT22;7057;49.984;8.404;2023-02-05T07:09:26;4.60;99.90
13970;DHT22;7057;49.984;8.404;2023-02-05T07:11:53;4.60;99.90
13970;DHT22;7057;49.984;8.404;2023-02-05T07:14:20;4.60;99.90
13970;DHT22;7057;49.984;8.404;2023-02-05T07:16:47;4.60;99.90
13970;DHT22;7057;49.984;8.404;2023-02-05T07:19:15;4.50;99.90
13970;DHT22;7057;49.984;8.404;2023-02-05T07:21:43;4.40;99.90
13970;DHT22;7057;49.984;8.404;2023-02-05T07:24:11;4.40;99.90
13970;DHT22;7057;49.984;8.404;2023-02-05T07:26:38;4.40;99.90
13970;DHT22;7057;49.984;8.404;2023-02-05T07:29:07;4.40;99.90
13970;DHT22;7057;49.984;8.404;2023-02-05T07:31:34;4.30;99.90
13970;DHT22;7057;49.984;8.404;2023-02-05T07:34:02;4.30;99.90
13970;DHT22;7057;49.984;8.404;2023-02-05T07:36:29;4.20;99.90
13970;DHT22;7057;49.984;8.404;2023-02-05T07:38:56;4.10;99.90
13970;DHT22;7057;49.984;8.404;2023-02-05T07:41:25;4.10;99.90
13970;DHT22;7057;49.984;8.404;2023-02-05T07:43:53;4.20;99.90
13970;DHT22;7057;49.984;8.404;2023-02-05T07:46:21;4.30;99.90
13970;DHT22;7057;49.984;8.404;2023-02-05T07:48:48;4.40;99.90
13970;DHT22;7057;49.984;8.404;2023-02-05T07:51:16;4.50;99.90
13970;DHT22;7057;49.984;8.404;2023-02-05T07:53:44;4.50;99.90
13970;DHT22;7057;49.984;8.404;2023-02-05T07:56:11;4.60;99.90
13970;DHT22;7057;49.984;8.404;2023-02-05T07:58:40;4.60;99.90
13970;DHT22;7057;49.984;8.404;2023-02-05T08:01:07;4.70;99.90
13970;DHT22;7057;49.984;8.404;2023-02-05T08:03:34;4.90;99.90
13970;DHT22;7057;49.984;8.404;2023-02-05T08:06:03;4.70;99.90
13970;DHT22;7057;49.984;8.404;2023-02-05T08:08:31;4.70;99.90
13970;DHT22;7057;49.984;8.404;2023-02-05T08:11:00;4.80;99.90
13970;DHT22;7057;49.984;8.404;2023-02-05T08:13:27;4.80;99.90
13970;DHT22;7057;49.984;8.404;2023-02-05T08:15:56;4.80;99.90
13970;DHT22;7057;49.984;8.404;2023-02-05T08:18:24;4.90;99.90
13970;DHT22;7057;49.984;8.404;2023-02-05T08:20:52;5.00;99.90
13970;DHT22;7057;49.984;8.404;2023-02-05T08:23:20;5.00;99.90
13970;DHT22;7057;49.984;8.404;2023-02-05T08:25:47;5.00;99.90
13970;DHT22;7057;49.984;8.404;2023-02-05T08:28:14;5.10;99.90
13970;DHT22;7057;49.984;8.404;2023-02-05T08:30:41;5.10;99.90
13970;DHT22;7057;49.984;8.404;2023-02-05T08:33:10;5.10;99.90
13970;DHT22;7057;49.984;8.404;2023-02-05T08:35:37;5.10;99.90
13970;DHT22;7057;49.984;8.404;2023-02-05T08:38:04;5.10;99.90
13970;DHT22;7057;49.984;8.404;2023-02-05T08:40:32;5.10;99.90
13970;DHT22;7057;49.984;8.404;2023-02-05T08:42:59;5.00;99.90
13970;DHT22;7057;49.984;8.404;2023-02-05T08:45:29;5.00;99.90
13970;DHT22;7057;49.984;8.404;2023-02-05T08:47:56;4.90;99.90
13970;DHT22;7057;49.984;8.404;2023-02-05T08:50:25;4.80;99.90
13970;DHT22;7057;49.984;8.404;2023-02-05T08:52:52;4.80;99.90
13970;DHT22;7057;49.984;8.404;2023-02-05T08:55:19;4.80;99.90
13970;DHT22;7057;49.984;8.404;2023-02-05T08:57:46;4.90;99.90
13970;DHT22;7057;49.984;8.404;2023-02-05T09:00:14;5.00;99.90
13970;DHT22;7057;49.984;8.404;2023-02-05T09:02:41;5.00;99.90
13970;DHT22;7057;49.984;8.404;2023-02-05T09:05:09;5.10;99.90
13970;DHT22;7057;49.984;8.404;2023-02-05T09:07:38;5.20;99.90
13970;DHT22;7057;49.984;8.404;2023-02-05T09:10:07;5.20;99.90
13970;DHT22;7057;49.984;8.404;2023-02-05T09:12:34;5.20;99.90
13970;DHT22;7057;49.984;8.404;2023-02-05T09:15:02;5.20;99.90
13970;DHT22;7057;49.984;8.404;2023-02-05T09:17:29;5.20;99.90
13970;DHT22;7057;49.984;8.404;2023-02-05T09:19:57;5.30;99.90
13970;DHT22;7057;49.984;8.404;2023-02-05T09:22:24;5.30;99.90
13970;DHT22;7057;49.984;8.404;2023-02-05T09:24:52;5.30;99.90
13970;DHT22;7057;49.984;8.404;2023-02-05T09:27:19;5.40;99.90
13970;DHT22;7057;49.984;8.404;2023-02-05T09:29:46;5.40;99.90
13970;DHT22;7057;49.984;8.404;2023-02-05T09:32:14;5.40;99.90
13970;DHT22;7057;49.984;8.404;2023-02-05T09:34:41;5.40;99.90
13970;DHT22;7057;49.984;8.404;2023-02-05T09:37:08;5.40;99.90
13970;DHT22;7057;49.984;8.404;2023-02-05T09:39:35;5.40;99.90
13970;DHT22;7057;49.984;8.404;2023-02-05T09:42:09;5.40;99.90
13970;DHT22;7057;49.984;8.404;2023-02-05T09:45:00;5.50;99.90
13970;DHT22;7057;49.984;8.404;2023-02-05T09:47:31;5.50;99.90
13970;DHT22;7057;49.984;8.404;2023-02-05T09:50:03;5.50;99.90
13970;DHT22;7057;49.984;8.404;2023-02-05T09:52:36;5.50;99.90
13970;DHT22;7057;49.984;8.404;2023-02-05T09:55:10;5.50;99.90
13970;DHT22;7057;49.984;8.404;2023-02-05T09:57:42;5.60;99.90
13970;DHT22;7057;49.984;8.404;2023-02-05T10:00:18;5.60;99.90
13970;DHT22;7057;49.984;8.404;2023-02-05T10:02:49;5.70;99.90
13970;DHT22;7057;49.984;8.404;2023-02-05T10:05:20;5.80;99.90
13970;DHT22;7057;49.984;8.404;2023-02-05T10:07:53;5.80;99.90
13970;DHT22;7057;49.984;8.404;2023-02-05T10:10:24;5.90;99.90
13970;DHT22;7057;49.984;8.404;2023-02-05T10:15:55;5.90;99.90
13970;DHT22;7057;49.984;8.404;2023-02-05T10:18:35;5.90;99.90
13970;DHT22;7057;49.984;8.404;2023-02-05T10:21:09;5.90;99.90
13970;DHT22;7057;49.984;8.404;2023-02-05T10:24:05;5.90;99.90
13970;DHT22;7057;49.984;8.404;2023-02-05T10:26:41;5.90;99.90
13970;DHT22;7057;49.984;8.404;2023-02-05T10:29:23;5.90;99.90
13970;DHT22;7057;49.984;8.404;2023-02-05T10:32:07;5.90;99.90
13970;DHT22;7057;49.984;8.404;2023-02-05T10:34:46;5.80;99.90
13970;DHT22;7057;49.984;8.404;2023-02-05T10:37:18;5.80;99.90
13970;DHT22;7057;49.984;8.404;2023-02-05T10:39:45;5.90;99.90
13970;DHT22;7057;49.984;8.404;2023-02-05T10:42:25;5.80;99.90
13970;DHT22;7057;49.984;8.404;2023-02-05T10:45:00;5.80;99.90
13970;DHT22;7057;49.984;8.404;2023-02-05T10:47:42;5.80;99.90
13970;DHT22;7057;49.984;8.404;2023-02-05T10:50:17;5.80;99.90
13970;DHT22;7057;49.984;8.404;2023-02-05T10:52:45;5.80;99.90
13970;DHT22;7057;49.984;8.404;2023-02-05T10:55:13;5.80;99.90
13970;DHT22;7057;49.984;8.404;2023-02-05T10:57:40;5.80;99.90
13970;DHT22;7057;49.984;8.404;2023-02-05T11:00:16;5.80;99.90
13970;DHT22;7057;49.984;8.404;2023-02-05T11:02:48;5.90;99.90
13970;DHT22;7057;49.984;8.404;2023-02-05T11:05:20;5.80;99.90
13970;DHT22;7057;49.984;8.404;2023-02-05T11:07:50;5.90;99.90
13970;DHT22;7057;49.984;8.404;2023-02-05T11:10:19;5.90;99.90
13970;DHT22;7057;49.984;8.404;2023-02-05T11:12:48;6.00;99.90
13970;DHT22;7057;49.984;8.404;2023-02-05T11:15:25;6.00;99.90
13970;DHT22;7057;49.984;8.404;2023-02-05T11:17:55;6.10;99.90
13970;DHT22;7057;49.984;8.404;2023-02-05T11:20:30;6.10;99.90
13970;DHT22;7057;49.984;8.404;2023-02-05T11:23:15;5.90;99.90
13970;DHT22;7057;49.984;8.404;2023-02-05T11:25:52;6.00;99.90
13970;DHT22;7057;49.984;8.404;2023-02-05T11:28:26;5.90;99.90
13970;DHT22;7057;49.984;8.404;2023-02-05T11:30:56;5.90;99.90
13970;DHT22;7057;49.984;8.404;2023-02-05T11:33:28;5.90;99.90
13970;DHT22;7057;49.984;8.404;2023-02-05T11:35:59;5.80;99.90
13970;DHT22;7057;49.984;8.404;2023-02-05T11:38:33;5.80;99.90
13970;DHT22;7057;49.984;8.404;2023-02-05T11:41:04;5.80;99.90
13970;DHT22;7057;49.984;8.404;2023-02-05T11:43:33;5.70;99.90
13970;DHT22;7057;49.984;8.404;2023-02-05T11:46:05;5.80;99.90
13970;DHT22;7057;49.984;8.404;2023-02-05T11:48:38;5.80;99.90
13970;DHT22;7057;49.984;8.404;2023-02-05T11:51:08;5.80;99.90
13970;DHT22;7057;49.984;8.404;2023-02-05T11:53:37;5.90;99.90
13970;DHT22;7057;49.984;8.404;2023-02-05T11:56:18;5.90;99.90
13970;DHT22;7057;49.984;8.404;2023-02-05T11:58:57;6.00;99.90
13970;DHT22;7057;49.984;8.404;2023-02-05T12:01:27;5.90;99.90
13970;DHT22;7057;49.984;8.404;2023-02-05T12:03:58;6.00;99.90
13970;DHT22;7057;49.984;8.404;2023-02-05T12:06:30;6.00;99.90
13970;DHT22;7057;49.984;8.404;2023-02-05T12:08:59;6.00;99.90
13970;DHT22;7057;49.984;8.404;2023-02-05T12:11:40;5.90;99.90
13970;DHT22;7057;49.984;8.404;2023-02-05T12:14:41;5.90;99.90
13970;DHT22;7057;49.984;8.404;2023-02-05T12:17:26;5.80;99.90
13970;DHT22;7057;49.984;8.404;2023-02-05T12:20:04;5.80;99.90
13970;DHT22;7057;49.984;8.404;2023-02-05T12:22:49;5.80;99.90
13970;DHT22;7057;49.984;8.404;2023-02-05T12:25:23;5.90;99.90
13970;DHT22;7057;49.984;8.404;2023-02-05T12:28:03;6.00;99.90
13970;DHT22;7057;49.984;8.404;2023-02-05T12:30:44;6.10;99.90
13970;DHT22;7057;49.984;8.404;2023-02-05T12:33:29;6.20;99.90
13970;DHT22;7057;49.984;8.404;2023-02-05T12:36:09;6.20;99.90
13970;DHT22;7057;49.984;8.404;2023-02-05T12:38:47;6.30;99.90
13970;DHT22;7057;49.984;8.404;2023-02-05T12:41:27;6.40;99.90
13970;DHT22;7057;49.984;8.404;2023-02-05T12:44:01;6.50;99.90
13970;DHT22;7057;49.984;8.404;2023-02-05T12:46:42;6.50;99.90
13970;DHT22;7057;49.984;8.404;2023-02-05T12:49:22;6.60;99.90
13970;DHT22;7057;49.984;8.404;2023-02-05T12:52:01;6.60;99.90
13970;DHT22;7057;49.984;8.404;2023-02-05T12:54:42;6.70;99.90
13970;DHT22;7057;49.984;8.404;2023-02-05T12:57:15;6.80;99.90
13970;DHT22;7057;49.984;8.404;2023-02-05T12:59:46;6.90;99.90
13970;DHT22;7057;49.984;8.404;2023-02-05T13:02:21;6.90;99.90
13970;DHT22;7057;49.984;8.404;2023-02-05T13:04:57;6.90;99.90
13970;DHT22;7057;49.984;8.404;2023-02-05T13:07:31;7.00;99.90
13970;DHT22;7057;49.984;8.404;2023-02-05T13:10:01;7.00;99.90
13970;DHT22;7057;49.984;8.404;2023-02-05T13:12:34;6.90;99.90
13970;DHT22;7057;49.984;8.404;2023-02-05T13:15:09;6.90;99.90
13970;DHT22;7057;49.984;8.404;2023-02-05T13:17:42;6.90;99.90
13970;DHT22;7057;49.984;8.404;2023-02-05T13:20:20;6.80;99.90
13970;DHT22;7057;49.984;8.404;2023-02-05T13:23:08;6.70;99.90
13970;DHT22;7057;49.984;8.404;2023-02-05T13:25:55;6.70;99.90
13970;DHT22;7057;49.984;8.404;2023-02-05T13:28:42;6.70;99.90
13970;DHT22;7057;49.984;8.404;2023-02-05T13:31:22;6.80;99.90
13970;DHT22;7057;49.984;8.404;2023-02-05T13:33:51;6.80;99.90
13970;DHT22;7057;49.984;8.404;2023-02-05T13:39:40;6.70;99.90
13970;DHT22;7057;49.984;8.404;2023-02-05T13:42:24;6.70;99.90
13970;DHT22;7057;49.984;8.404;2023-02-05T13:45:29;6.70;99.90
13970;DHT22;7057;49.984;8.404;2023-02-05T13:48:28;6.60;99.90
13970;DHT22;7057;49.984;8.404;2023-02-05T13:51:27;6.50;99.90
13970;DHT22;7057;49.984;8.404;2023-02-05T13:54:16;6.50;99.90
13970;DHT22;7057;49.984;8.404;2023-02-05T13:56:49;6.40;99.90
13970;DHT22;7057;49.984;8.404;2023-02-05T13:59:19;6.40;99.90
13970;DHT22;7057;49.984;8.404;2023-02-05T14:01:50;6.40;99.90
13970;DHT22;7057;49.984;8.404;2023-02-05T14:04:24;6.40;99.90
13970;DHT22;7057;49.984;8.404;2023-02-05T14:06:59;6.40;99.90
13970;DHT22;7057;49.984;8.404;2023-02-05T14:09:33;6.40;99.90
13970;DHT22;7057;49.984;8.404;2023-02-05T14:12:03;6.50;99.90
13970;DHT22;7057;49.984;8.404;2023-02-05T14:14:32;6.50;99.90
13970;DHT22;7057;49.984;8.404;2023-02-05T14:17:02;6.50;99.90
13970;DHT22;7057;49.984;8.404;2023-02-05T14:19:51;6.60;99.90
13970;DHT22;7057;49.984;8.404;2023-02-05T14:22:40;6.50;99.90
13970;DHT22;7057;49.984;8.404;2023-02-05T14:28:42;6.50;99.90
13970;DHT22;7057;49.984;8.404;2023-02-05T14:34:43;6.40;99.90
13970;DHT22;7057;49.984;8.404;2023-02-05T14:40:21;6.50;99.90
13970;DHT22;7057;49.984;8.404;2023-02-05T14:42:51;6.60;99.90
13970;DHT22;7057;49.984;8.404;2023-02-05T14:45:21;6.60;99.90
13970;DHT22;7057;49.984;8.404;2023-02-05T14:47:49;6.80;99.90
13970;DHT22;7057;49.984;8.404;2023-02-05T14:50:19;6.70;99.90
13970;DHT22;7057;49.984;8.404;2023-02-05T14:52:49;6.70;99.90
13970;DHT22;7057;49.984;8.404;2023-02-05T14:55:23;6.80;99.90
13970;DHT22;7057;49.984;8.404;2023-02-05T14:57:52;6.80;99.90
13970;DHT22;7057;49.984;8.404;2023-02-05T15:00:27;6.70;99.90
13970;DHT22;7057;49.984;8.404;2023-02-05T15:03:26;6.70;99.90
13970;DHT22;7057;49.984;8.404;2023-02-05T15:05:57;6.60;99.90
13970;DHT22;7057;49.984;8.404;2023-02-05T15:08:38;6.50;99.90
13970;DHT22;7057;49.984;8.404;2023-02-05T15:11:13;6.30;99.90
13970;DHT22;7057;49.984;8.404;2023-02-05T15:13:41;6.10;99.90
13970;DHT22;7057;49.984;8.404;2023-02-05T15:16:29;6.00;99.90
13970;DHT22;7057;49.984;8.404;2023-02-05T15:18:58;5.80;99.90
13970;DHT22;7057;49.984;8.404;2023-02-05T15:21:28;5.80;99.90
13970;DHT22;7057;49.984;8.404;2023-02-05T15:23:59;5.70;99.90
13970;DHT22;7057;49.984;8.404;2023-02-05T15:26:35;5.70;99.90
13970;DHT22;7057;49.984;8.404;2023-02-05T15:29:08;5.60;99.90
13970;DHT22;7057;49.984;8.404;2023-02-05T15:31:41;5.60;99.90
13970;DHT22;7057;49.984;8.404;2023-02-05T15:34:25;5.60;99.90
13970;DHT22;7057;49.984;8.404;2023-02-05T15:36:57;5.60;99.90
13970;DHT22;7057;49.984;8.404;2023-02-05T15:39:30;5.60;99.90
13970;DHT22;7057;49.984;8.404;2023-02-05T15:42:01;5.60;99.90
13970;DHT22;7057;49.984;8.404;2023-02-05T15:44:32;5.70;99.90
13970;DHT22;7057;49.984;8.404;2023-02-05T15:47:03;5.60;99.90
13970;DHT22;7057;49.984;8.404;2023-02-05T15:49:35;5.60;99.90
13970;DHT22;7057;49.984;8.404;2023-02-05T15:52:03;5.60;99.90
13970;DHT22;7057;49.984;8.404;2023-02-05T15:54:33;5.60;99.90
13970;DHT22;7057;49.984;8.404;2023-02-05T15:57:03;5.70;99.90
13970;DHT22;7057;49.984;8.404;2023-02-05T15:59:32;5.70;99.90
13970;DHT22;7057;49.984;8.404;2023-02-05T16:02:03;5.70;99.90
13970;DHT22;7057;49.984;8.404;2023-02-05T16:04:33;5.70;99.90
13970;DHT22;7057;49.984;8.404;2023-02-05T16:07:01;5.70;99.90
13970;DHT22;7057;49.984;8.404;2023-02-05T16:09:30;5.70;99.90
13970;DHT22;7057;49.984;8.404;2023-02-05T16:12:11;5.60;99.90
13970;DHT22;7057;49.984;8.404;2023-02-05T16:14:38;5.70;99.90
13970;DHT22;7057;49.984;8.404;2023-02-05T16:17:11;5.70;99.90
13970;DHT22;7057;49.984;8.404;2023-02-05T16:19:45;5.70;99.90
13970;DHT22;7057;49.984;8.404;2023-02-05T16:22:22;5.70;99.90
13970;DHT22;7057;49.984;8.404;2023-02-05T16:24:53;5.70;99.90
13970;DHT22;7057;49.984;8.404;2023-02-05T16:27:30;5.60;99.90
13970;DHT22;7057;49.984;8.404;2023-02-05T16:30:03;5.60;99.90
13970;DHT22;7057;49.984;8.404;2023-02-05T16:32:35;5.60;99.90
13970;DHT22;7057;49.984;8.404;2023-02-05T16:35:06;5.60;99.90
13970;DHT22;7057;49.984;8.404;2023-02-05T16:37:35;5.70;99.90
13970;DHT22;7057;49.984;8.404;2023-02-05T16:40:04;5.70;99.90
13970;DHT22;7057;49.984;8.404;2023-02-05T16:42:36;5.70;99.90
13970;DHT22;7057;49.984;8.404;2023-02-05T16:45:19;5.70;99.90
13970;DHT22;7057;49.984;8.404;2023-02-05T16:48:19;5.70;99.90
13970;DHT22;7057;49.984;8.404;2023-02-05T16:50:48;5.60;99.90